Time;durP1;ratioP1;P1;durP2;ratioP2;P2;SDS_P1;SDS_P2;PMS_P1;PMS_P2;Temp;Humidity;BMP_temperature;BMP_pressure;BME280_temperature;BME280_humidity;BME280_pressure;Samples;Min_cycle;Max_cycle;Signal;HPM_P1;HPM_P2
2021/09/15 00:01:28;;;;;;;14.33;9.40;;;;;;;-145.18;100.00;60484.78;5030228;28;20032;-67
2021/09/15 00:03:53;;;;;;;14.60;9.93;;;;;;;-145.18;100.00;60484.78;5026121;28;20031;-67
2021/09/15 00:06:19;;;;;;;16.47;10.33;;;;;;;-145.18;100.00;60484.78;5025601;28;20029;-67
2021/09/15 00:08:44;;;;;;;14.17;9.50;;;;;;;-145.18;100.00;60484.78;5020490;28;20024;-67
2021/09/15 00:11:12;;;;;;;16.27;10.97;;;;;;;-145.18;100.00;60484.78;5021374;28;20025;-67
2021/09/15 00:13:38;;;;;;;15.00;9.90;;;;;;;-145.18;100.00;60484.78;5019042;28;20056;-67
2021/09/15 00:16:04;;;;;;;17.23;10.67;;;;;;;-145.18;100.00;60484.78;5029541;28;20048;-67
2021/09/15 00:18:29;;;;;;;15.40;10.43;;;;;;;-145.18;100.00;60484.78;5021408;28;20121;-67
2021/09/15 00:20:55;;;;;;;15.73;10.17;;;;;;;-145.18;100.00;60484.78;5030693;28;20389;-67
2021/09/15 00:23:21;;;;;;;16.90;11.23;;;;;;;-145.18;100.00;60484.78;5019668;28;20067;-67
2021/09/15 00:25:46;;;;;;;16.40;10.23;;;;;;;-145.18;100.00;60484.78;5022939;28;20029;-68
2021/09/15 00:28:12;;;;;;;16.20;10.07;;;;;;;-145.18;100.00;60484.78;5022330;28;20026;-68
2021/09/15 00:30:37;;;;;;;18.03;10.50;;;;;;;-145.18;100.00;60484.78;5027301;28;20029;-65
2021/09/15 00:33:03;;;;;;;14.37;10.20;;;;;;;-145.18;100.00;60484.78;5029060;28;20433;-68
2021/09/15 00:35:28;;;;;;;14.47;9.63;;;;;;;-145.18;100.00;60484.78;5023829;28;20068;-68
2021/09/15 00:37:54;;;;;;;15.17;10.03;;;;;;;-145.18;100.00;60484.78;5028765;28;20127;-68
2021/09/15 00:40:19;;;;;;;15.53;10.50;;;;;;;-145.18;100.00;60484.78;5029371;28;20024;-68
2021/09/15 00:42:45;;;;;;;16.97;10.97;;;;;;;-145.18;100.00;60484.78;5028960;28;20033;-68
2021/09/15 00:45:10;;;;;;;16.10;10.67;;;;;;;-145.18;100.00;60484.78;5028545;28;20355;-68
2021/09/15 00:47:36;;;;;;;15.33;10.13;;;;;;;-145.18;100.00;60484.78;5035749;28;20029;-68
2021/09/15 00:50:01;;;;;;;19.57;12.10;;;;;;;-145.18;100.00;60484.78;5027168;28;20029;-68
2021/09/15 00:52:27;;;;;;;18.80;11.43;;;;;;;-145.18;100.00;60484.78;5024509;28;20060;-68
2021/09/15 00:54:53;;;;;;;21.80;11.03;;;;;;;-145.18;100.00;60484.78;5026000;28;20283;-68
2021/09/15 00:57:19;;;;;;;17.33;11.03;;;;;;;-145.18;100.00;60484.78;5025075;28;20506;-68
2021/09/15 00:59:44;;;;;;;18.40;10.27;;;;;;;-145.18;100.00;60484.78;5024027;28;20021;-68
2021/09/15 01:02:10;;;;;;;16.53;10.63;;;;;;;-145.18;100.00;60484.78;5041870;22;20242;-67
2021/09/15 01:04:35;;;;;;;18.10;11.80;;;;;;;-145.18;100.00;60484.78;5001090;28;20042;-68
2021/09/15 01:07:01;;;;;;;17.87;11.40;;;;;;;-145.18;100.00;60484.78;5003899;28;20096;-68
2021/09/15 01:09:29;;;;;;;16.87;10.83;;;;;;;-145.18;100.00;60484.78;5001909;28;20036;-68
2021/09/15 01:11:57;;;;;;;17.13;10.70;;;;;;;-145.18;100.00;60484.78;4996299;28;20038;-68
2021/09/15 01:14:23;;;;;;;16.23;11.03;;;;;;;-145.18;100.00;60484.78;5002471;28;20260;-68
2021/09/15 01:16:58;;;;;;;22.13;11.73;;;;;;;-145.18;100.00;60484.78;4995633;28;20030;-68
2021/09/15 01:19:24;;;;;;;18.27;11.23;;;;;;;-145.18;100.00;60484.78;4999870;28;20195;-68
2021/09/15 01:21:51;;;;;;;20.73;11.63;;;;;;;-145.18;100.00;60484.78;4995408;28;20099;-68
2021/09/15 01:24:16;;;;;;;17.90;11.73;;;;;;;-145.18;100.00;60484.78;5000806;28;20034;-68
2021/09/15 01:26:42;;;;;;;17.30;11.57;;;;;;;-145.18;100.00;60484.78;5000867;28;20265;-68
2021/09/15 01:29:22;;;;;;;19.13;11.50;;;;;;;-145.18;100.00;60484.78;5000931;28;20045;-68
2021/09/15 01:32:06;;;;;;;19.03;11.83;;;;;;;-145.18;100.00;60484.78;5000178;28;20226;-68
2021/09/15 01:34:51;;;;;;;22.97;12.70;;;;;;;-145.18;100.00;60484.78;4997084;28;20122;-68
2021/09/15 01:37:18;;;;;;;19.57;12.47;;;;;;;-145.18;100.00;60484.78;4997439;28;20038;-68
2021/09/15 01:39:44;;;;;;;19.87;12.33;;;;;;;-145.18;100.00;60484.78;5001275;28;20087;-68
2021/09/15 01:42:10;;;;;;;21.77;12.33;;;;;;;-145.18;100.00;60484.78;4999402;28;20038;-68
2021/09/15 01:44:41;;;;;;;19.43;12.27;;;;;;;-145.18;100.00;60484.78;5000787;28;20044;-68
2021/09/15 01:47:09;;;;;;;22.77;13.43;;;;;;;-145.18;100.00;60484.78;5004514;28;20132;-68
2021/09/15 01:49:35;;;;;;;23.57;12.77;;;;;;;-145.18;100.00;60484.78;5000481;28;20040;-68
2021/09/15 01:52:02;;;;;;;19.23;12.20;;;;;;;-145.18;100.00;60484.78;4996462;28;20352;-68
2021/09/15 01:54:28;;;;;;;23.23;13.80;;;;;;;-145.18;100.00;60484.78;4997736;28;20105;-68
2021/09/15 01:56:54;;;;;;;20.47;12.50;;;;;;;-145.18;100.00;60484.78;4997592;28;20061;-68
2021/09/15 01:59:20;;;;;;;20.60;12.77;;;;;;;-145.18;100.00;60484.78;5001052;28;20049;-68
2021/09/15 02:01:46;;;;;;;19.20;12.73;;;;;;;-145.18;100.00;60484.78;4993002;28;20040;-68
2021/09/15 02:04:12;;;;;;;21.80;12.50;;;;;;;-145.18;100.00;60484.78;4981401;28;20380;-68
2021/09/15 02:06:38;;;;;;;21.90;12.57;;;;;;;-145.18;100.00;60484.78;4981318;28;20280;-68
2021/09/15 02:09:04;;;;;;;19.50;12.43;;;;;;;-145.18;100.00;60484.78;4982247;28;20022;-68
2021/09/15 02:11:30;;;;;;;25.83;12.63;;;;;;;-145.18;100.00;60484.78;4980814;28;20034;-68
2021/09/15 02:13:55;;;;;;;20.57;13.20;;;;;;;-145.18;100.00;60484.78;4981525;28;20022;-69
2021/09/15 02:16:22;;;;;;;23.10;12.80;;;;;;;-145.18;100.00;60484.78;4980179;28;20036;-68
2021/09/15 02:18:47;;;;;;;23.90;13.27;;;;;;;-145.18;100.00;60484.78;4982189;28;20030;-67
2021/09/15 02:21:14;;;;;;;22.37;13.20;;;;;;;-145.18;100.00;60484.78;4980917;28;20045;-67
2021/09/15 02:23:39;;;;;;;21.20;13.60;;;;;;;-145.18;100.00;60484.78;4980344;28;20054;-67
2021/09/15 02:26:04;;;;;;;22.10;12.80;;;;;;;-145.18;100.00;60484.78;4974214;28;20056;-67
2021/09/15 02:28:30;;;;;;;22.60;14.03;;;;;;;-145.18;100.00;60484.78;4981110;28;20042;-67
2021/09/15 02:30:56;;;;;;;24.80;13.50;;;;;;;-145.18;100.00;60484.78;4980948;28;20479;-67
2021/09/15 02:33:21;;;;;;;21.37;13.27;;;;;;;-145.18;100.00;60484.78;4980996;28;20038;-67
2021/09/15 02:35:47;;;;;;;20.60;13.00;;;;;;;-145.18;100.00;60484.78;4979325;28;20034;-67
2021/09/15 02:38:12;;;;;;;21.63;12.93;;;;;;;-145.18;100.00;60484.78;4980654;28;20126;-68
2021/09/15 02:40:38;;;;;;;20.63;12.17;;;;;;;-145.18;100.00;60484.78;4980292;28;20130;-67
2021/09/15 02:43:03;;;;;;;20.07;12.87;;;;;;;-145.18;100.00;60484.78;4980579;28;20030;-67
2021/09/15 02:45:29;;;;;;;22.37;13.87;;;;;;;-145.18;100.00;60484.78;4973433;28;20061;-67
2021/09/15 02:47:54;;;;;;;24.43;13.33;;;;;;;-145.18;100.00;60484.78;4979995;28;20100;-67
2021/09/15 02:50:20;;;;;;;22.70;13.03;;;;;;;-145.18;100.00;60484.78;4982737;28;20034;-67
2021/09/15 02:52:46;;;;;;;22.50;13.30;;;;;;;-145.18;100.00;60484.78;4979334;28;20088;-67
2021/09/15 02:55:11;;;;;;;21.23;12.93;;;;;;;-145.18;100.00;60484.78;4980547;28;20489;-67
2021/09/15 02:57:37;;;;;;;23.97;13.83;;;;;;;-145.18;100.00;60484.78;4980575;28;20037;-67
2021/09/15 03:00:05;;;;;;;31.33;13.23;;;;;;;-145.18;100.00;60484.78;4981240;28;20038;-68
2021/09/15 03:02:31;;;;;;;24.33;13.37;;;;;;;-145.18;100.00;60484.78;4979875;28;20050;-68
2021/09/15 03:04:56;;;;;;;23.40;13.63;;;;;;;-145.18;100.00;60484.78;4979454;28;20097;-68
2021/09/15 03:07:22;;;;;;;21.77;12.03;;;;;;;-145.18;100.00;60484.78;4981394;28;20038;-68
2021/09/15 03:09:47;;;;;;;22.33;13.10;;;;;;;-145.18;100.00;60484.78;4980179;28;20544;-68
2021/09/15 03:12:14;;;;;;;20.40;12.67;;;;;;;-145.18;100.00;60484.78;4980518;28;20445;-68
2021/09/15 03:14:40;;;;;;;24.13;14.13;;;;;;;-145.18;100.00;60484.78;4979688;28;20101;-69
2021/09/15 03:17:08;;;;;;;24.60;13.90;;;;;;;-145.18;100.00;60484.78;4980141;28;20041;-68
2021/09/15 03:19:34;;;;;;;22.60;12.77;;;;;;;-145.18;100.00;60484.78;4980064;28;20045;-68
2021/09/15 03:21:59;;;;;;;24.37;14.03;;;;;;;-145.18;100.00;60484.78;4980379;28;20430;-68
2021/09/15 03:24:25;;;;;;;19.70;12.50;;;;;;;-145.18;100.00;60484.78;4979360;28;20085;-69
2021/09/15 03:26:51;;;;;;;20.47;13.27;;;;;;;-145.18;100.00;60484.78;4979636;28;20463;-68
2021/09/15 03:29:16;;;;;;;22.27;14.07;;;;;;;-145.18;100.00;60484.78;4980000;28;20041;-68
2021/09/15 03:31:42;;;;;;;21.70;13.00;;;;;;;-145.18;100.00;60484.78;4978740;28;20117;-68
2021/09/15 03:34:08;;;;;;;22.23;13.67;;;;;;;-145.18;100.00;60484.78;4979608;28;20131;-68
2021/09/15 03:36:34;;;;;;;32.13;13.57;;;;;;;-145.18;100.00;60484.78;4979777;28;20521;-68
2021/09/15 03:39:00;;;;;;;21.93;13.90;;;;;;;-145.18;100.00;60484.78;4978913;28;20030;-68
2021/09/15 03:41:25;;;;;;;22.43;13.17;;;;;;;-145.18;100.00;60484.78;4980272;28;21587;-68
2021/09/15 03:43:51;;;;;;;21.17;12.67;;;;;;;-145.18;100.00;60484.78;4979307;28;20088;-68
2021/09/15 03:46:17;;;;;;;23.17;13.13;;;;;;;-145.18;100.00;60484.78;4979370;28;20084;-68
2021/09/15 03:48:42;;;;;;;25.77;13.67;;;;;;;-145.18;100.00;60484.78;4979894;28;20118;-68
2021/09/15 03:51:08;;;;;;;27.70;13.03;;;;;;;-145.18;100.00;60484.78;4988889;28;20196;-68
2021/09/15 03:53:34;;;;;;;23.37;13.00;;;;;;;-145.18;100.00;60484.78;4979783;28;20034;-68
2021/09/15 03:55:59;;;;;;;23.43;13.03;;;;;;;-145.18;100.00;60484.78;4979643;28;20390;-68
2021/09/15 03:58:25;;;;;;;22.27;12.63;;;;;;;-145.18;100.00;60484.78;4979173;28;20030;-68
2021/09/15 04:00:50;;;;;;;19.90;12.47;;;;;;;-145.18;100.00;60484.78;4978112;28;20245;-68
2021/09/15 04:03:16;;;;;;;20.00;12.27;;;;;;;-145.18;100.00;60484.78;4978518;28;20050;-68
2021/09/15 04:05:42;;;;;;;23.17;13.10;;;;;;;-145.18;100.00;60484.78;4977512;28;20507;-68
2021/09/15 04:08:07;;;;;;;18.57;12.13;;;;;;;-145.18;100.00;60484.78;4979326;28;20406;-68
2021/09/15 04:10:33;;;;;;;19.03;11.90;;;;;;;-145.18;100.00;60484.78;4979990;28;20050;-68
2021/09/15 04:12:58;;;;;;;19.20;11.77;;;;;;;-145.18;100.00;60484.78;4979556;28;20384;-68
2021/09/15 04:15:24;;;;;;;22.50;12.77;;;;;;;-145.18;100.00;60484.78;4978718;28;20406;-68
2021/09/15 04:17:49;;;;;;;21.10;12.57;;;;;;;-145.18;100.00;60484.78;4978487;28;20034;-68
2021/09/15 04:20:15;;;;;;;23.47;12.87;;;;;;;-145.18;100.00;60484.78;4979604;28;20393;-68
2021/09/15 04:22:44;;;;;;;18.87;11.93;;;;;;;-145.18;100.00;60484.78;4979389;28;20022;-68
2021/09/15 04:33:30;;;;;;;20.27;12.63;;;;;;;-145.18;100.00;60484.78;4971882;28;20068;-68
2021/09/15 04:35:55;;;;;;;19.37;11.53;;;;;;;-145.18;100.00;60484.78;4978434;28;20022;-69
2021/09/15 04:38:21;;;;;;;21.10;12.00;;;;;;;-145.18;100.00;60484.78;4979487;28;20038;-69
2021/09/15 04:40:46;;;;;;;22.03;12.40;;;;;;;-145.18;100.00;60484.78;4979318;28;20033;-69
2021/09/15 04:43:12;;;;;;;21.03;12.90;;;;;;;-145.18;100.00;60484.78;4979434;28;20507;-68
2021/09/15 04:45:37;;;;;;;22.27;13.40;;;;;;;-145.18;100.00;60484.78;4976416;28;20030;-69
2021/09/15 04:48:04;;;;;;;22.73;12.33;;;;;;;-145.18;100.00;60484.78;4978703;28;20133;-69
2021/09/15 04:50:30;;;;;;;28.07;13.53;;;;;;;-145.18;100.00;60484.78;4978764;28;20033;-68
2021/09/15 04:52:56;;;;;;;22.80;13.30;;;;;;;-145.18;100.00;60484.78;4978964;28;20026;-68
2021/09/15 04:55:22;;;;;;;23.13;13.80;;;;;;;-145.18;100.00;60484.78;4978583;28;20410;-68
2021/09/15 04:57:49;;;;;;;20.83;13.27;;;;;;;-145.18;100.00;60484.78;4978724;28;20467;-68
2021/09/15 05:00:17;;;;;;;22.40;13.43;;;;;;;-145.18;100.00;60484.78;4979286;28;20026;-68
2021/09/15 05:02:42;;;;;;;22.20;13.50;;;;;;;-145.18;100.00;60484.78;4977024;28;20061;-69
2021/09/15 05:05:08;;;;;;;19.80;13.00;;;;;;;-145.18;100.00;60484.78;4977167;28;20034;-69
2021/09/15 05:07:34;;;;;;;23.40;13.17;;;;;;;-145.18;100.00;60484.78;4978642;28;20546;-68
2021/09/15 05:10:03;;;;;;;23.13;13.10;;;;;;;-145.18;100.00;60484.78;4979108;28;20022;-68
2021/09/15 05:12:28;;;;;;;22.10;12.70;;;;;;;-145.18;100.00;60484.78;4981186;28;20030;-68
2021/09/15 05:14:54;;;;;;;22.00;13.77;;;;;;;-145.18;100.00;60484.78;4981125;28;20088;-68
2021/09/15 05:17:20;;;;;;;27.47;14.07;;;;;;;-145.18;100.00;60484.78;4977925;28;20057;-70
2021/09/15 05:19:45;;;;;;;25.43;14.17;;;;;;;-145.18;100.00;60484.78;4982842;28;20401;-68
2021/09/15 05:22:11;;;;;;;25.43;14.00;;;;;;;-145.18;100.00;60484.78;4982238;28;20018;-69
2021/09/15 05:24:37;;;;;;;26.20;14.43;;;;;;;-145.18;100.00;60484.78;4982184;28;20037;-68
2021/09/15 05:27:03;;;;;;;23.80;13.63;;;;;;;-145.18;100.00;60484.78;4981596;28;20651;-68
2021/09/15 05:29:28;;;;;;;28.67;14.87;;;;;;;-145.18;100.00;60484.78;4981904;28;20419;-68
2021/09/15 05:31:54;;;;;;;26.20;14.77;;;;;;;-145.18;100.00;60484.78;4981050;28;20037;-68
2021/09/15 05:34:19;;;;;;;24.60;14.07;;;;;;;-145.18;100.00;60484.78;4983556;28;20026;-69
2021/09/15 05:36:45;;;;;;;26.67;14.27;;;;;;;-145.18;100.00;60484.78;4983804;28;20423;-69
2021/09/15 05:39:10;;;;;;;25.23;14.67;;;;;;;-145.18;100.00;60484.78;4981669;28;20053;-68
2021/09/15 05:41:36;;;;;;;22.20;13.07;;;;;;;-145.18;100.00;60484.78;4981650;28;20038;-68
2021/09/15 05:44:02;;;;;;;24.50;13.70;;;;;;;-145.18;100.00;60484.78;4980642;28;20491;-69
2021/09/15 05:46:27;;;;;;;23.93;14.20;;;;;;;-145.18;100.00;60484.78;4980592;28;20030;-69
2021/09/15 05:48:53;;;;;;;24.40;14.13;;;;;;;-145.18;100.00;60484.78;4979944;28;20030;-69
2021/09/15 05:51:18;;;;;;;26.07;14.03;;;;;;;-145.18;100.00;60484.78;4982130;28;20779;-69
2021/09/15 05:53:44;;;;;;;28.90;14.67;;;;;;;-145.18;100.00;60484.78;4982034;28;20169;-69
2021/09/15 05:56:09;;;;;;;26.73;15.30;;;;;;;-145.18;100.00;60484.78;4981478;28;20100;-69
2021/09/15 05:58:35;;;;;;;26.20;14.10;;;;;;;-145.18;100.00;60484.78;4981720;28;20030;-68
2021/09/15 06:01:01;;;;;;;25.87;13.23;;;;;;;-145.18;100.00;60484.78;4981783;28;20070;-68
2021/09/15 06:03:27;;;;;;;28.30;13.60;;;;;;;-145.18;100.00;60484.78;4981618;28;20050;-68
2021/09/15 06:05:52;;;;;;;24.03;13.57;;;;;;;-145.18;100.00;60484.78;4982213;28;20026;-68
2021/09/15 06:08:21;;;;;;;22.13;12.97;;;;;;;-145.18;100.00;60484.78;4981010;28;20208;-68
2021/09/15 06:10:46;;;;;;;23.30;13.70;;;;;;;-145.18;100.00;60484.78;4981348;28;20037;-68
2021/09/15 06:13:12;;;;;;;23.47;13.47;;;;;;;-145.18;100.00;60484.78;4982265;28;20031;-68
2021/09/15 06:15:37;;;;;;;21.13;12.93;;;;;;;-145.18;100.00;60484.78;4981852;28;20485;-68
2021/09/15 06:18:03;;;;;;;23.47;13.20;;;;;;;-145.18;100.00;60484.78;4981371;28;20026;-69
2021/09/15 06:20:29;;;;;;;20.57;12.80;;;;;;;-145.18;100.00;60484.78;4981544;28;20029;-68
2021/09/15 06:22:54;;;;;;;23.17;12.90;;;;;;;-145.18;100.00;60484.78;4981121;28;20034;-68
2021/09/15 06:25:23;;;;;;;20.23;12.80;;;;;;;-145.18;100.00;60484.78;4986061;28;20272;-68
2021/09/15 06:27:51;;;;;;;20.47;12.77;;;;;;;-145.18;100.00;60484.78;4981815;28;20030;-68
2021/09/15 06:30:16;;;;;;;20.53;12.63;;;;;;;-145.18;100.00;60484.78;4981210;28;20057;-68
2021/09/15 06:32:42;;;;;;;21.30;12.53;;;;;;;-145.18;100.00;60484.78;4981766;28;20053;-68
2021/09/15 06:35:10;;;;;;;20.53;12.37;;;;;;;-145.18;100.00;60484.78;4981756;28;20034;-68
2021/09/15 06:37:35;;;;;;;19.73;12.23;;;;;;;-145.18;100.00;60484.78;4985036;28;20431;-68
2021/09/15 06:40:01;;;;;;;21.23;12.17;;;;;;;-145.18;100.00;60484.78;4980945;28;20026;-68
2021/09/15 06:42:27;;;;;;;20.77;12.67;;;;;;;-145.18;100.00;60484.78;4981650;28;20032;-68
2021/09/15 06:44:52;;;;;;;24.07;13.73;;;;;;;-145.18;100.00;60484.78;4981139;28;20507;-68
2021/09/15 06:47:17;;;;;;;22.27;13.03;;;;;;;-145.18;100.00;60484.78;4981389;28;20469;-68
2021/09/15 06:49:43;;;;;;;21.33;13.20;;;;;;;-145.18;100.00;60484.78;4980773;28;20030;-68
2021/09/15 06:52:08;;;;;;;20.57;12.80;;;;;;;-145.18;100.00;60484.78;4981156;28;20032;-68
2021/09/15 06:54:34;;;;;;;26.93;13.50;;;;;;;-145.18;100.00;60484.78;4974487;28;20023;-68
2021/09/15 06:57:00;;;;;;;22.00;13.17;;;;;;;-145.18;100.00;60484.78;4981229;28;20018;-68
2021/09/15 06:59:25;;;;;;;23.97;13.30;;;;;;;-145.18;100.00;60484.78;4981118;28;20026;-68
2021/09/15 07:01:54;;;;;;;25.23;13.60;;;;;;;-145.18;100.00;60484.78;4980167;28;20030;-68
2021/09/15 07:04:19;;;;;;;25.90;13.10;;;;;;;-145.18;100.00;60484.78;4980757;28;20033;-68
2021/09/15 07:06:45;;;;;;;22.13;13.03;;;;;;;-145.18;100.00;60484.78;4981307;28;20298;-68
2021/09/15 07:09:11;;;;;;;21.97;13.63;;;;;;;-145.18;100.00;60484.78;4980922;28;20235;-68
2021/09/15 07:11:36;;;;;;;22.97;13.87;;;;;;;-145.18;100.00;60484.78;4980146;28;20061;-68
2021/09/15 07:14:04;;;;;;;25.30;13.77;;;;;;;-145.18;100.00;60484.78;4980799;28;20084;-68
2021/09/15 07:16:33;;;;;;;24.60;13.60;;;;;;;-145.18;100.00;60484.78;4979999;28;20640;-68
2021/09/15 07:19:00;;;;;;;24.50;14.00;;;;;;;-145.18;100.00;60484.78;4982562;28;20183;-68
2021/09/15 07:21:28;;;;;;;23.57;13.43;;;;;;;-145.18;100.00;60484.78;4980100;28;20096;-68
2021/09/15 07:23:54;;;;;;;25.70;12.93;;;;;;;-145.18;100.00;60484.78;4979973;28;20300;-68
2021/09/15 07:26:19;;;;;;;25.27;13.87;;;;;;;-145.18;100.00;60484.78;4980259;28;20061;-68
2021/09/15 07:28:45;;;;;;;27.17;14.87;;;;;;;-145.18;100.00;60484.78;4980599;28;20080;-68
2021/09/15 07:31:10;;;;;;;27.90;14.40;;;;;;;-145.18;100.00;60484.78;4979252;28;20375;-68
2021/09/15 07:33:36;;;;;;;23.23;13.07;;;;;;;-145.18;100.00;60484.78;4980139;28;20050;-68
2021/09/15 07:36:03;;;;;;;24.90;13.40;;;;;;;-145.18;100.00;60484.78;4979543;28;20022;-68
2021/09/15 07:38:30;;;;;;;26.47;13.97;;;;;;;-145.18;100.00;60484.78;4980316;28;20033;-68
2021/09/15 07:40:56;;;;;;;23.87;14.17;;;;;;;-145.18;100.00;60484.78;4979525;28;20033;-68
2021/09/15 07:43:22;;;;;;;30.10;15.03;;;;;;;-145.18;100.00;60484.78;4979798;28;20680;-68
2021/09/15 07:45:48;;;;;;;21.70;12.80;;;;;;;-145.18;100.00;60484.78;4979935;28;20218;-68
2021/09/15 07:48:13;;;;;;;23.67;12.70;;;;;;;-145.18;100.00;60484.78;4980122;28;20030;-68
2021/09/15 07:50:39;;;;;;;25.77;14.13;;;;;;;-145.18;100.00;60484.78;4979853;28;20092;-68
2021/09/15 07:53:04;;;;;;;28.47;14.33;;;;;;;-145.18;100.00;60484.78;4979898;28;20501;-68
2021/09/15 07:55:30;;;;;;;25.57;13.47;;;;;;;-145.18;100.00;60484.78;4979630;28;20034;-68
2021/09/15 07:57:56;;;;;;;25.20;13.17;;;;;;;-145.18;100.00;60484.78;4975745;28;20130;-68
2021/09/15 08:00:21;;;;;;;22.17;12.33;;;;;;;-145.18;100.00;60484.78;4979335;28;20256;-68
2021/09/15 08:02:47;;;;;;;21.37;12.90;;;;;;;-145.18;100.00;60484.78;4979103;28;20434;-68
2021/09/15 08:05:13;;;;;;;25.07;12.60;;;;;;;-145.18;100.00;60484.78;4989235;28;20034;-68
2021/09/15 08:07:39;;;;;;;25.10;13.17;;;;;;;-145.18;100.00;60484.78;4979620;28;20100;-68
2021/09/15 08:10:06;;;;;;;23.80;13.07;;;;;;;-145.18;100.00;60484.78;4978747;28;20487;-68
2021/09/15 08:12:31;;;;;;;22.37;13.07;;;;;;;-145.18;100.00;60484.78;4979259;28;20026;-68
2021/09/15 08:14:57;;;;;;;24.77;13.83;;;;;;;-145.18;100.00;60484.78;4979622;28;20490;-68
2021/09/15 08:17:23;;;;;;;24.53;12.53;;;;;;;-145.18;100.00;60484.78;4979201;28;20022;-68
2021/09/15 08:19:48;;;;;;;22.63;12.07;;;;;;;-145.18;100.00;60484.78;4978007;28;20515;-68
2021/09/15 08:22:13;;;;;;;25.07;12.93;;;;;;;-145.18;100.00;60484.78;4984095;28;20029;-68
2021/09/15 08:24:39;;;;;;;22.53;12.50;;;;;;;-145.18;100.00;60484.78;4980928;28;20479;-68
2021/09/15 08:27:05;;;;;;;23.20;13.27;;;;;;;-145.18;100.00;60484.78;4979553;28;20022;-68
2021/09/15 08:29:30;;;;;;;21.97;12.90;;;;;;;-145.18;100.00;60484.78;4978990;28;20540;-68
2021/09/15 08:31:56;;;;;;;23.73;12.33;;;;;;;-145.18;100.00;60484.78;4988285;28;20039;-68
2021/09/15 08:34:22;;;;;;;20.93;12.07;;;;;;;-145.18;100.00;60484.78;4978542;28;20029;-68
2021/09/15 08:36:47;;;;;;;22.07;12.87;;;;;;;-145.18;100.00;60484.78;4978952;28;20522;-68
2021/09/15 08:39:13;;;;;;;21.87;12.87;;;;;;;-145.18;100.00;60484.78;4978703;28;20220;-68
2021/09/15 08:41:40;;;;;;;23.90;13.50;;;;;;;-145.18;100.00;60484.78;4979157;28;20030;-68
2021/09/15 08:44:05;;;;;;;22.93;12.07;;;;;;;-145.18;100.00;60484.78;4979007;28;20026;-68
2021/09/15 08:46:33;;;;;;;20.83;12.73;;;;;;;-145.18;100.00;60484.78;4980147;28;20031;-68
2021/09/15 08:48:59;;;;;;;24.90;13.50;;;;;;;-145.18;100.00;60484.78;4983489;28;20038;-69
2021/09/15 08:51:26;;;;;;;25.17;13.33;;;;;;;-145.18;100.00;60484.78;4983087;28;20234;-69
2021/09/15 08:53:53;;;;;;;38.40;13.47;;;;;;;-145.18;100.00;60484.78;4982096;28;20588;-69
2021/09/15 08:56:19;;;;;;;28.37;13.90;;;;;;;-145.18;100.00;60484.78;4980245;28;20029;-69
2021/09/15 08:58:45;;;;;;;32.23;14.07;;;;;;;-145.18;100.00;60484.78;4982740;28;20089;-69
2021/09/15 09:01:19;;;;;;;25.33;14.40;;;;;;;-145.18;100.00;60484.78;4984866;28;20152;-69
2021/09/15 09:03:47;;;;;;;24.77;14.20;;;;;;;-145.18;100.00;60484.78;4981705;28;20042;-69
2021/09/15 09:06:15;;;;;;;26.80;14.47;;;;;;;-145.18;100.00;60484.78;4977312;28;20057;-69
2021/09/15 09:08:43;;;;;;;24.93;13.80;;;;;;;-145.18;100.00;60484.78;4983478;28;20033;-69
2021/09/15 09:11:10;;;;;;;40.90;17.17;;;;;;;-145.18;100.00;60484.78;4982866;28;20030;-69
2021/09/15 09:13:46;;;;;;;35.97;15.77;;;;;;;-145.18;100.00;60484.78;4982809;28;20386;-68
2021/09/15 09:16:12;;;;;;;32.53;16.37;;;;;;;-145.18;100.00;60484.78;4982558;28;20089;-68
2021/09/15 09:19:00;;;;;;;31.90;16.00;;;;;;;-145.18;100.00;60484.78;4982139;28;20030;-68
2021/09/15 09:21:28;;;;;;;31.60;15.83;;;;;;;-145.18;100.00;60484.78;4982646;28;20030;-68
2021/09/15 09:24:03;;;;;;;31.03;15.07;;;;;;;-145.18;100.00;60484.78;4982410;28;20112;-68
2021/09/15 09:26:55;;;;;;;31.17;16.13;;;;;;;-145.18;100.00;60484.78;4982147;28;20030;-68
2021/09/15 09:29:28;;;;;;;;;;;;;;;-145.18;100.00;60484.78;4977826;28;20347;-68
2021/09/15 09:32:15;;;;;;;31.27;15.77;;;;;;;-145.18;100.00;60484.78;4984347;28;20386;-68
2021/09/15 09:34:49;;;;;;;36.37;16.37;;;;;;;-145.18;100.00;60484.78;4989412;28;20089;-68
2021/09/15 09:37:20;;;;;;;34.37;17.40;;;;;;;-145.18;100.00;60484.78;4982383;28;20030;-68
2021/09/15 09:39:57;;;;;;;35.80;16.37;;;;;;;-145.18;100.00;60484.78;4982404;28;20041;-68
2021/09/15 09:42:33;;;;;;;42.23;18.00;;;;;;;-145.18;100.00;60484.78;4981949;28;20580;-68
2021/09/15 09:45:12;;;;;;;47.30;18.10;;;;;;;-145.18;100.00;60484.78;4979672;28;20058;-67
2021/09/15 09:47:38;;;;;;;40.10;16.97;;;;;;;-145.18;100.00;60484.78;4975251;28;20240;-67
2021/09/15 09:50:16;;;;;;;41.53;18.03;;;;;;;-145.18;100.00;60484.78;4983120;28;20100;-67
2021/09/15 09:53:02;;;;;;;38.47;17.13;;;;;;;-145.18;100.00;60484.78;4981524;28;20472;-67
2021/09/15 09:55:36;;;;;;;34.43;16.93;;;;;;;-145.18;100.00;60484.78;4981493;28;20057;-67
2021/09/15 09:58:04;;;;;;;37.57;16.27;;;;;;;-145.18;100.00;60484.78;4981087;28;20050;-67
2021/09/15 10:00:30;;;;;;;36.47;16.93;;;;;;;-145.18;100.00;60484.78;4980969;28;20037;-67
2021/09/15 10:02:58;;;;;;;33.93;16.70;;;;;;;-145.18;100.00;60484.78;4979643;28;20514;-67
2021/09/15 10:05:23;;;;;;;35.80;16.07;;;;;;;-145.18;100.00;60484.78;4981548;28;20042;-67
2021/09/15 10:07:50;;;;;;;35.17;16.50;;;;;;;-145.18;100.00;60484.78;4981568;28;20401;-67
2021/09/15 10:10:18;;;;;;;35.73;16.77;;;;;;;-145.18;100.00;60484.78;4982218;28;20697;-67
2021/09/15 10:12:50;;;;;;;34.00;17.27;;;;;;;-145.18;100.00;60484.78;4981629;28;20026;-67
2021/09/15 10:15:19;;;;;;;33.85;16.38;;;;;;;-145.18;100.00;60484.78;4981628;28;20034;-67
2021/09/15 10:17:51;;;;;;;36.40;16.57;;;;;;;-145.18;100.00;60484.78;4981753;28;20026;-67
2021/09/15 10:20:24;;;;;;;36.90;17.17;;;;;;;-145.18;100.00;60484.78;4981470;28;20038;-67
2021/09/15 10:22:49;;;;;;;34.83;16.20;;;;;;;-145.18;100.00;60484.78;4981235;28;20261;-67
2021/09/15 10:25:20;;;;;;;37.50;16.83;;;;;;;-145.18;100.00;60484.78;4981402;28;20089;-67
2021/09/15 10:28:06;;;;;;;36.93;17.30;;;;;;;-145.18;100.00;60484.78;4981058;28;20037;-67
2021/09/15 10:30:53;;;;;;;34.60;17.07;;;;;;;-145.18;100.00;60484.78;4987538;28;20046;-67
2021/09/15 10:33:57;;;;;;;32.43;17.13;;;;;;;-145.18;100.00;60484.78;4980972;28;20291;-67
2021/09/15 10:36:39;;;;;;;36.47;18.07;;;;;;;-145.18;100.00;60484.78;4939237;28;20027;-67
2021/09/15 10:39:06;;;;;;;;;;;;;;;-145.18;100.00;60484.78;4940071;29;20042;-67
2021/09/15 10:41:43;;;;;;;31.90;16.67;;;;;;;-145.18;100.00;60484.78;4939225;28;20001;-67
2021/09/15 10:44:11;;;;;;;33.83;17.87;;;;;;;-145.18;100.00;60484.78;4938911;28;20369;-67
2021/09/15 10:46:37;;;;;;;34.17;17.53;;;;;;;-145.18;100.00;60484.78;4938607;28;20655;-67
2021/09/15 10:49:46;;;;;;;35.00;17.23;;;;;;;-145.18;100.00;60484.78;4939114;28;20023;-67
2021/09/15 10:52:41;;;;;;;31.87;16.43;;;;;;;-145.18;100.00;60484.78;4941212;28;20039;-69
2021/09/15 10:55:21;;;;;;;31.07;16.53;;;;;;;-145.18;100.00;60484.78;4938948;28;20469;-67
2021/09/15 10:57:48;;;;;;;28.50;15.70;;;;;;;-145.18;100.00;60484.78;4926662;29;20492;-67
2021/09/15 11:00:45;;;;;;;31.20;15.83;;;;;;;-145.18;100.00;60484.78;4939300;28;20039;-67
2021/09/15 11:03:31;;;;;;;29.53;15.30;;;;;;;-145.18;100.00;60484.78;4938585;28;20047;-67
2021/09/15 11:06:17;;;;;;;30.75;15.75;;;;;;;-145.18;100.00;60484.78;4939084;28;20035;-67